X  Cerrar Datos meteorológicos de aviación METAR     LIPX Verona-Villafranca Valerio Catullo Airport
Temperatura
13°C Temperatura
5°C Punto de rocío
59% Humedad



Viento
8 KM/H
5 MPH
2 M/S
4 NUDO



350°
N
Condiciones actuales

Nubes mayormente dispersas Nubes mayormente dispersas
Presión 1007.79 (hPa) - 29.76 (inHg)
Visibilidad 6 (milla) - 9.7 (km)
Aeropuerto
Código de aeropuerto LIPX

localidad: Verona-Villafranca Valerio Catullo Airport
Distancia: 0 (km)

Metar:
LIPX 251420Z 35004KT 300V030 9999 SCT040 13/05 Q1008

Hora: 25-02-2024 14:20 CET